Terminal Aerodrome Forecast
Issued by NWS Twin Cities, MN

Home | Current Version | Previous Version | Graphics & Text | Print | Product List | Glossary On
Versions: 1 2 3 4 5 6 7 8 9 10 11 12 13 14 15
000
FTUS43 KMPX 232343
TAFSTC
TAF
KSTC 232343Z 2400/2424 18015G20KT P6SM BKN040 OVC150
     FM240100 17010KT P6SM VCSH BKN040 BKN150
     FM240400 19005KT P6SM SCT020 BKN035
     FM240900 21003KT 6SM BR SCT007 BKN015
     FM241400 30009KT P6SM FEW025 SCT100
     FM241800 28012G20KT P6SM SKC=

USA.gov is the U.S. government's official web portal to all federal, state and local government web resources and services.